createdAt,value
2018-09-28T00:00:11.524Z,101684.70
2018-09-28T00:00:24.386Z,101687.47
2018-09-28T00:00:36.148Z,101692.14
2018-09-28T00:00:47.916Z,101689.53
2018-09-28T00:00:59.680Z,101684.31
2018-09-28T00:01:11.468Z,101689.16
2018-09-28T00:01:23.375Z,101687.85
2018-09-28T00:01:35.136Z,101689.53
2018-09-28T00:01:46.909Z,101688.23
2018-09-28T00:01:58.654Z,101697.36
2018-09-28T00:02:10.420Z,101686.00
2018-09-28T00:02:22.168Z,101693.45
2018-09-28T00:02:33.907Z,101690.84
2018-09-28T00:02:45.666Z,101691.38
2018-09-28T00:02:57.443Z,101697.36
2018-09-28T00:03:09.220Z,101691.22
2018-09-28T00:03:20.970Z,101693.98
2018-09-28T00:03:32.707Z,101692.69
2018-09-28T00:03:44.442Z,101693.45
2018-09-28T00:03:56.200Z,101692.69
2018-09-28T00:04:07.949Z,101681.33
2018-09-28T00:04:19.704Z,101693.98
2018-09-28T00:04:31.442Z,101692.14
2018-09-28T00:04:43.221Z,101694.75
2018-09-28T00:04:54.969Z,101691.38
2018-09-28T00:05:06.723Z,101690.45
2018-09-28T00:05:18.477Z,101692.14
2018-09-28T00:05:30.218Z,101694.37
2018-09-28T00:05:41.983Z,101697.91
2018-09-28T00:05:54.039Z,101697.53
2018-09-28T00:06:05.808Z,101695.67
2018-09-28T00:06:17.603Z,101692.30
2018-09-28T00:06:29.365Z,101694.91
2018-09-28T00:06:41.118Z,101691.77
2018-09-28T00:06:52.859Z,101697.14
2018-09-28T00:07:04.625Z,101694.91
2018-09-28T00:07:16.383Z,101692.69
2018-09-28T00:07:28.165Z,101698.83
2018-09-28T00:07:40.000Z,101693.06
2018-09-28T00:07:51.756Z,101696.60
2018-09-28T00:08:03.515Z,101690.45
2018-09-28T00:08:15.284Z,101696.60
2018-09-28T00:08:27.050Z,101696.06
2018-09-28T00:08:38.792Z,101696.98
2018-09-28T00:08:50.548Z,101699.21
2018-09-28T00:09:02.333Z,101702.20
2018-09-28T00:09:14.089Z,101694.75
2018-09-28T00:09:25.853Z,101692.14
2018-09-28T00:09:37.606Z,101693.06
2018-09-28T00:09:49.349Z,101692.52
2018-09-28T00:10:01.094Z,101688.61
2018-09-28T00:10:12.855Z,101693.06
2018-09-28T00:10:24.614Z,101699.05
2018-09-28T00:10:36.388Z,101699.81
2018-09-28T00:10:48.134Z,101696.06
2018-09-28T00:10:59.883Z,101692.52
2018-09-28T00:11:11.626Z,101695.14
2018-09-28T00:11:23.407Z,101689.91
2018-09-28T00:11:35.167Z,101693.83
2018-09-28T00:11:46.937Z,101698.50
2018-09-28T00:11:58.688Z,101697.74
2018-09-28T00:12:10.460Z,101701.66
2018-09-28T00:12:22.210Z,101700.73
2018-09-28T00:12:33.988Z,101704.27
2018-09-28T00:12:45.746Z,101700.73
2018-09-28T00:12:57.485Z,101706.50
2018-09-28T00:13:09.237Z,101703.34
2018-09-28T00:13:20.982Z,101701.27
2018-09-28T00:13:32.734Z,101705.57
2018-09-28T00:13:44.491Z,101704.27
2018-09-28T00:13:56.260Z,101708.18
2018-09-28T00:14:08.203Z,101705.03
2018-09-28T00:14:19.968Z,101703.34
2018-09-28T00:14:31.720Z,101707.64
2018-09-28T00:14:43.482Z,101704.64
2018-09-28T00:14:55.239Z,101712.47
2018-09-28T00:15:07.022Z,101706.33
2018-09-28T00:15:18.767Z,101704.11
2018-09-28T00:15:30.517Z,101706.72
2018-09-28T00:15:42.276Z,101703.72
2018-09-28T00:15:54.036Z,101708.94
2018-09-28T00:16:05.787Z,101706.72
2018-09-28T00:16:17.573Z,101705.57
2018-09-28T00:16:29.325Z,101706.72
2018-09-28T00:16:41.080Z,101708.94
2018-09-28T00:16:52.856Z,101710.25
2018-09-28T00:17:04.615Z,101706.72
2018-09-28T00:17:16.372Z,101704.11
2018-09-28T00:17:28.137Z,101705.41
2018-09-28T00:17:39.912Z,101703.72
2018-09-28T00:17:51.706Z,101709.87
2018-09-28T00:18:03.463Z,101701.11
2018-09-28T00:18:15.220Z,101711.17
2018-09-28T00:18:26.966Z,101708.02
2018-09-28T00:18:38.724Z,101708.18
2018-09-28T00:18:50.483Z,101705.41
2018-09-28T00:19:02.238Z,101703.72
2018-09-28T00:19:13.979Z,101707.64
2018-09-28T00:19:25.734Z,101706.33
2018-09-28T00:19:37.480Z,101706.33
2018-09-28T00:19:49.253Z,101702.03
2018-09-28T00:20:01.016Z,101703.34
2018-09-28T00:20:12.788Z,101705.95
2018-09-28T00:20:24.526Z,101704.64
2018-09-28T00:20:36.281Z,101711.17
2018-09-28T00:20:48.046Z,101712.09
2018-09-28T00:20:59.794Z,101704.64
2018-09-28T00:21:11.552Z,101702.03
2018-09-28T00:21:23.299Z,101711.55
2018-09-28T00:21:35.058Z,101705.95
2018-09-28T00:21:46.810Z,101708.18
2018-09-28T00:21:58.574Z,101705.03
2018-09-28T00:22:10.328Z,101709.87
2018-09-28T00:22:22.078Z,101706.88
2018-09-28T00:22:33.974Z,101707.26
2018-09-28T00:22:45.724Z,101712.09
2018-09-28T00:22:57.488Z,101704.64
2018-09-28T00:23:09.242Z,101713.40
2018-09-28T00:23:20.999Z,101711.17
2018-09-28T00:23:32.768Z,101705.95
2018-09-28T00:23:44.552Z,101703.72
2018-09-28T00:23:56.304Z,101705.19
2018-09-28T00:24:08.160Z,101704.64
2018-09-28T00:24:19.912Z,101703.72
2018-09-28T00:24:31.670Z,101705.03
2018-09-28T00:24:43.448Z,101711.17
2018-09-28T00:24:55.196Z,101707.64
2018-09-28T00:25:06.956Z,101708.18
2018-09-28T00:25:18.746Z,101708.56
2018-09-28T00:25:30.499Z,101712.86
2018-09-28T00:25:42.383Z,101710.79
2018-09-28T00:25:54.184Z,101718.08
2018-09-28T00:26:05.997Z,101714.16
2018-09-28T00:26:17.725Z,101714.16
2018-09-28T00:26:29.480Z,101704.48
2018-09-28T00:26:41.261Z,101710.25
2018-09-28T00:26:53.024Z,101711.39
2018-09-28T00:27:04.780Z,101711.39
2018-09-28T00:27:16.534Z,101716.61
2018-09-28T00:27:28.286Z,101721.06
2018-09-28T00:27:40.036Z,101709.16
2018-09-28T00:27:51.792Z,101712.69
2018-09-28T00:28:03.537Z,101711.77
2018-09-28T00:28:15.288Z,101715.69
2018-09-28T00:28:27.041Z,101715.69
2018-09-28T00:28:38.784Z,101717.16
2018-09-28T00:28:50.535Z,101716.23
2018-09-28T00:29:02.303Z,101716.61
2018-09-28T00:29:14.059Z,101721.45
2018-09-28T00:29:25.802Z,101722.37
2018-09-28T00:29:37.559Z,101718.45
2018-09-28T00:29:49.321Z,101721.45
2018-09-28T00:30:01.079Z,101719.76
2018-09-28T00:30:12.888Z,101717.53
2018-09-28T00:30:24.652Z,101721.45
2018-09-28T00:30:36.418Z,101720.14
2018-09-28T00:30:48.187Z,101715.84
2018-09-28T00:30:59.944Z,101722.75
2018-09-28T00:31:11.703Z,101723.29
2018-09-28T00:31:23.452Z,101720.14
2018-09-28T00:31:35.223Z,101710.46
2018-09-28T00:31:46.993Z,101718.30
2018-09-28T00:31:58.764Z,101719.22
2018-09-28T00:32:10.520Z,101729.27
2018-09-28T00:32:22.277Z,101718.84
2018-09-28T00:32:34.034Z,101722.20
2018-09-28T00:32:45.799Z,101720.90
2018-09-28T00:32:57.542Z,101720.36
2018-09-28T00:33:09.299Z,101716.06
2018-09-28T00:33:21.046Z,101721.83
2018-09-28T00:33:32.811Z,101722.59
2018-09-28T00:33:44.562Z,101724.81
2018-09-28T00:33:56.320Z,101721.83
2018-09-28T00:34:08.073Z,101720.90
2018-09-28T00:34:19.851Z,101719.05
2018-09-28T00:34:31.605Z,101724.81
2018-09-28T00:34:43.357Z,101723.89
2018-09-28T00:34:55.102Z,101715.14
2018-09-28T00:35:06.865Z,101721.66
2018-09-28T00:35:18.618Z,101727.42
2018-09-28T00:35:30.387Z,101718.67
2018-09-28T00:35:42.172Z,101722.97
2018-09-28T00:35:53.995Z,101722.97
2018-09-28T00:36:05.736Z,101726.88
2018-09-28T00:36:17.484Z,101725.20
2018-09-28T00:36:29.227Z,101723.34
2018-09-28T00:36:40.972Z,101727.42
2018-09-28T00:36:52.743Z,101717.37
2018-09-28T00:37:04.509Z,101723.34
2018-09-28T00:37:16.270Z,101721.12
2018-09-28T00:37:28.014Z,101725.95
2018-09-28T00:37:39.784Z,101733.41
2018-09-28T00:37:51.517Z,101715.52
2018-09-28T00:38:03.356Z,101720.36
2018-09-28T00:38:15.132Z,101723.34
2018-09-28T00:38:26.878Z,101719.98
2018-09-28T00:38:38.647Z,101721.12
2018-09-28T00:38:50.404Z,101732.48
2018-09-28T00:39:02.152Z,101725.95
2018-09-28T00:39:13.995Z,101724.65
2018-09-28T00:39:25.741Z,101729.48
2018-09-28T00:39:37.490Z,101724.65
2018-09-28T00:39:49.255Z,101723.34
2018-09-28T00:40:01.030Z,101722.97
2018-09-28T00:40:12.785Z,101725.03
2018-09-28T00:40:24.547Z,101728.19
2018-09-28T00:40:36.459Z,101722.97
2018-09-28T00:40:48.220Z,101724.27
2018-09-28T00:40:59.967Z,101726.34
2018-09-28T00:41:11.738Z,101719.05
2018-09-28T00:41:23.493Z,101718.51
2018-09-28T00:41:35.265Z,101725.95
2018-09-28T00:41:47.020Z,101718.51
2018-09-28T00:41:58.788Z,101722.80
2018-09-28T00:42:10.552Z,101718.89
2018-09-28T00:42:22.307Z,101719.27
2018-09-28T00:42:34.043Z,101728.41
2018-09-28T00:42:45.819Z,101721.50
2018-09-28T00:42:57.596Z,101721.12
2018-09-28T00:43:09.334Z,101718.73
2018-09-28T00:43:21.095Z,101719.27
2018-09-28T00:43:32.860Z,101726.72
2018-09-28T00:43:44.599Z,101724.11
2018-09-28T00:43:56.341Z,101728.02
2018-09-28T00:44:08.100Z,101728.56
2018-09-28T00:44:19.844Z,101730.25
2018-09-28T00:44:31.600Z,101728.19
2018-09-28T00:44:43.355Z,101728.95
2018-09-28T00:44:55.124Z,101724.48
2018-09-28T00:45:06.866Z,101727.64
2018-09-28T00:45:18.612Z,101725.79
2018-09-28T00:45:30.370Z,101726.34
2018-09-28T00:45:42.130Z,101723.73
2018-09-28T00:45:53.875Z,101732.86
2018-09-28T00:46:05.626Z,101726.72
2018-09-28T00:46:17.376Z,101725.03
2018-09-28T00:46:29.143Z,101728.95
2018-09-28T00:46:40.913Z,101726.34
2018-09-28T00:46:52.668Z,101726.72
2018-09-28T00:47:04.454Z,101730.25
2018-09-28T00:47:16.212Z,101726.34
2018-09-28T00:47:27.980Z,101724.11
2018-09-28T00:47:39.735Z,101719.81
2018-09-28T00:47:51.495Z,101725.79
2018-09-28T00:48:03.434Z,101721.50
2018-09-28T00:48:15.495Z,101722.42
2018-09-28T00:48:27.253Z,101722.80
2018-09-28T00:48:39.004Z,101721.50
2018-09-28T00:48:50.751Z,101724.11
2018-09-28T00:49:02.626Z,101717.58
2018-09-28T00:49:14.374Z,101721.34
2018-09-28T00:49:26.127Z,101724.11
2018-09-28T00:49:37.930Z,101722.80
2018-09-28T00:49:49.696Z,101720.20
2018-09-28T00:50:01.592Z,101722.80
2018-09-28T00:50:13.348Z,101723.73
2018-09-28T00:50:25.223Z,101719.27
2018-09-28T00:50:36.978Z,101724.48
2018-09-28T00:50:48.728Z,101722.26
2018-09-28T00:51:00.485Z,101725.41
2018-09-28T00:51:12.240Z,101721.50
2018-09-28T00:51:23.987Z,101725.03
2018-09-28T00:51:35.760Z,101726.17
2018-09-28T00:51:47.524Z,101724.48
2018-09-28T00:51:59.300Z,101721.12
2018-09-28T00:52:11.057Z,101727.09
2018-09-28T00:52:22.802Z,101724.87
2018-09-28T00:52:34.560Z,101729.33
2018-09-28T00:52:46.316Z,101729.70
2018-09-28T00:52:58.085Z,101725.41
2018-09-28T00:53:09.856Z,101727.48
2018-09-28T00:53:21.621Z,101728.78
2018-09-28T00:53:33.376Z,101717.42
2018-09-28T00:53:45.131Z,101726.17
2018-09-28T00:53:56.883Z,101726.55
2018-09-28T00:54:08.643Z,101724.87
2018-09-28T00:54:20.404Z,101725.79
2018-09-28T00:54:32.139Z,101723.95
2018-09-28T00:54:44.006Z,101727.86
2018-09-28T00:54:55.756Z,101728.41
2018-09-28T00:55:07.498Z,101725.63
2018-09-28T00:55:19.254Z,101726.93
2018-09-28T00:55:30.994Z,101726.55
2018-09-28T00:55:42.747Z,101734.92
2018-09-28T00:55:54.512Z,101728.78
2018-09-28T00:56:06.263Z,101722.26
2018-09-28T00:56:18.106Z,101727.86
2018-09-28T00:56:29.860Z,101729.16
2018-09-28T00:56:41.618Z,101726.01
2018-09-28T00:56:53.383Z,101733.45
2018-09-28T00:57:05.140Z,101731.39
2018-09-28T00:57:16.911Z,101729.55
2018-09-28T00:57:28.672Z,101721.72
2018-09-28T00:57:40.424Z,101727.31
2018-09-28T00:57:52.171Z,101724.33
2018-09-28T00:58:03.918Z,101729.55
2018-09-28T00:58:15.667Z,101725.63
2018-09-28T00:58:27.443Z,101722.64
2018-09-28T00:58:39.199Z,101725.63
2018-09-28T00:58:50.954Z,101728.62
2018-09-28T00:59:02.728Z,101728.62
2018-09-28T00:59:14.523Z,101730.84
2018-09-28T00:59:26.306Z,101729.55
2018-09-28T00:59:38.063Z,101728.23
2018-09-28T00:59:49.826Z,101730.08
2018-09-28T01:00:01.600Z,101726.93
2018-09-28T01:00:13.370Z,101723.95
2018-09-28T01:00:25.139Z,101723.40
2018-09-28T01:00:36.902Z,101730.08
2018-09-28T01:00:48.647Z,101730.62
2018-09-28T01:01:00.395Z,101726.72
2018-09-28T01:01:12.159Z,101727.48
2018-09-28T01:01:23.921Z,101726.55
2018-09-28T01:01:35.663Z,101726.17
2018-09-28T01:01:47.406Z,101728.23
2018-09-28T01:01:59.154Z,101729.16
2018-09-28T01:02:10.923Z,101730.84
2018-09-28T01:02:22.707Z,101729.92
2018-09-28T01:02:34.492Z,101729.00
2018-09-28T01:02:46.253Z,101728.62
2018-09-28T01:02:58.013Z,101731.23
2018-09-28T01:03:09.759Z,101732.53
2018-09-28T01:03:21.516Z,101732.91
2018-09-28T01:03:33.271Z,101731.61
2018-09-28T01:03:45.023Z,101733.84
2018-09-28T01:03:56.781Z,101730.30
2018-09-28T01:04:08.551Z,101732.53
2018-09-28T01:04:20.308Z,101729.00
2018-09-28T01:04:32.053Z,101730.68
2018-09-28T01:04:43.812Z,101735.91
2018-09-28T01:04:55.564Z,101734.22
2018-09-28T01:05:07.319Z,101734.22
2018-09-28T01:05:19.073Z,101738.13
2018-09-28T01:05:30.830Z,101731.61
2018-09-28T01:05:42.587Z,101731.61
2018-09-28T01:05:54.347Z,101727.11
2018-09-28T01:06:06.086Z,101730.30
2018-09-28T01:06:17.837Z,101731.61
2018-09-28T01:06:29.597Z,101731.61
2018-09-28T01:06:41.342Z,101734.94
2018-09-28T01:06:53.075Z,101734.22
2018-09-28T01:07:04.844Z,101734.59
2018-09-28T01:07:16.602Z,101729.92
2018-09-28T01:07:28.388Z,101732.53
2018-09-28T01:07:40.142Z,101732.91
2018-09-28T01:07:51.904Z,101735.52
2018-09-28T01:08:03.651Z,101733.84
2018-09-28T01:08:15.405Z,101733.08
2018-09-28T01:08:27.163Z,101739.59
2018-09-28T01:08:38.936Z,101734.77
2018-09-28T01:08:50.706Z,101736.06
2018-09-28T01:09:02.457Z,101730.30
2018-09-28T01:09:15.240Z,101734.22
2018-09-28T01:09:26.996Z,101728.62
2018-09-28T01:09:38.749Z,101730.30
2018-09-28T01:09:50.516Z,101731.61
2018-09-28T01:10:02.284Z,101732.91
2018-09-28T01:10:14.049Z,101735.91
2018-09-28T01:10:25.795Z,101740.36
2018-09-28T01:10:37.547Z,101730.30
2018-09-28T01:10:49.307Z,101731.61
2018-09-28T01:11:01.067Z,101729.00
2018-09-28T01:11:12.825Z,101736.45
2018-09-28T01:11:24.586Z,101729.38
2018-09-28T01:11:36.357Z,101737.37
2018-09-28T01:11:48.123Z,101734.59
2018-09-28T01:11:59.888Z,101731.23
2018-09-28T01:12:11.634Z,101729.38
2018-09-28T01:12:23.382Z,101734.22
2018-09-28T01:12:35.163Z,101735.52
2018-09-28T01:12:46.935Z,101731.61
2018-09-28T01:12:58.692Z,101735.14
2018-09-28T01:13:10.447Z,101731.98
2018-09-28T01:13:22.206Z,101736.24
2018-09-28T01:13:33.980Z,101741.66
2018-09-28T01:13:45.727Z,101736.83
2018-09-28T01:13:57.494Z,101734.02
2018-09-28T01:14:09.287Z,101731.41
2018-09-28T01:14:21.054Z,101733.09
2018-09-28T01:14:32.850Z,101730.11
2018-09-28T01:14:44.607Z,101737.93
2018-09-28T01:14:56.363Z,101735.32
2018-09-28T01:15:08.131Z,101735.70
2018-09-28T01:15:19.914Z,101734.59
2018-09-28T01:15:31.659Z,101738.85
2018-09-28T01:15:43.440Z,101736.24
2018-09-28T01:15:55.194Z,101732.71
2018-09-28T01:16:06.960Z,101736.62
2018-09-28T01:16:18.719Z,101734.94
2018-09-28T01:16:30.463Z,101731.78
2018-09-28T01:16:42.225Z,101733.09
2018-09-28T01:16:53.975Z,101731.41
2018-09-28T01:17:05.722Z,101730.86
2018-09-28T01:17:17.495Z,101727.88
2018-09-28T01:17:29.264Z,101737.01
2018-09-28T01:17:41.041Z,101733.47
2018-09-28T01:17:52.792Z,101729.39
2018-09-28T01:18:04.548Z,101736.08
2018-09-28T01:18:16.303Z,101737.60
2018-09-28T01:18:28.059Z,101731.63
2018-09-28T01:18:39.832Z,101732.00
2018-09-28T01:18:51.599Z,101729.77
2018-09-28T01:19:03.361Z,101737.39
2018-09-28T01:19:15.120Z,101732.71
2018-09-28T01:19:26.875Z,101731.41
2018-09-28T01:19:38.631Z,101734.02
2018-09-28T01:19:50.383Z,101729.56
2018-09-28T01:20:02.134Z,101735.32
2018-09-28T01:20:13.897Z,101729.94
2018-09-28T01:20:25.671Z,101736.08
2018-09-28T01:20:37.430Z,101733.47
2018-09-28T01:20:49.180Z,101733.09
2018-09-28T01:21:00.931Z,101733.64
2018-09-28T01:21:12.685Z,101734.02
2018-09-28T01:21:24.450Z,101733.30
2018-09-28T01:21:36.220Z,101735.91
2018-09-28T01:21:47.969Z,101737.20
2018-09-28T01:21:59.723Z,101734.40
2018-09-28T01:22:11.466Z,101742.97
2018-09-28T01:22:23.211Z,101742.05
2018-09-28T01:22:34.969Z,101734.02
2018-09-28T01:22:47.003Z,101740.16
2018-09-28T01:22:58.764Z,101740.16
2018-09-28T01:23:10.521Z,101738.31
2018-09-28T01:23:22.270Z,101739.23
2018-09-28T01:23:34.060Z,101738.69
2018-09-28T01:23:45.825Z,101741.84
2018-09-28T01:23:57.575Z,101737.39
2018-09-28T01:24:09.320Z,101734.78
2018-09-28T01:24:21.076Z,101741.30
2018-09-28T01:24:32.830Z,101741.30
2018-09-28T01:24:44.578Z,101734.78
2018-09-28T01:24:56.325Z,101737.77
2018-09-28T01:25:08.066Z,101734.99
2018-09-28T01:25:19.806Z,101739.07
2018-09-28T01:25:31.750Z,101736.46
2018-09-28T01:25:43.503Z,101739.07
2018-09-28T01:25:55.255Z,101734.61
2018-09-28T01:26:07.012Z,101732.38
2018-09-28T01:26:18.747Z,101738.14
2018-09-28T01:26:30.492Z,101741.13
2018-09-28T01:26:42.257Z,101736.46
2018-09-28T01:26:54.019Z,101737.39
2018-09-28T01:27:05.777Z,101735.92
2018-09-28T01:27:17.544Z,101739.07
2018-09-28T01:27:29.298Z,101737.60
2018-09-28T01:27:41.036Z,101734.61
2018-09-28T01:27:52.820Z,101734.99
2018-09-28T01:28:04.567Z,101741.13
2018-09-28T01:28:16.318Z,101734.23
2018-09-28T01:28:28.059Z,101737.98
2018-09-28T01:28:39.802Z,101740.21
2018-09-28T01:28:51.571Z,101732.77
2018-09-28T01:29:03.344Z,101734.45
2018-09-28T01:29:15.094Z,101734.06
2018-09-28T01:29:26.846Z,101737.22
2018-09-28T01:29:38.596Z,101739.07
2018-09-28T01:29:50.338Z,101739.07
2018-09-28T01:30:02.104Z,101738.53
2018-09-28T01:30:13.851Z,101738.53
2018-09-28T01:30:25.611Z,101735.53
2018-09-28T01:30:37.372Z,101739.07
2018-09-28T01:30:49.156Z,101736.46
2018-09-28T01:31:00.906Z,101729.39
2018-09-28T01:31:12.662Z,101729.39
2018-09-28T01:31:24.397Z,101739.83
2018-09-28T01:31:36.144Z,101729.77
2018-09-28T01:31:47.903Z,101734.61
2018-09-28T01:31:59.697Z,101736.30
2018-09-28T01:32:11.465Z,101728.85
2018-09-28T01:32:23.214Z,101739.07
2018-09-28T01:32:34.994Z,101739.61
2018-09-28T01:32:46.751Z,101729.39
2018-09-28T01:32:58.525Z,101736.46
2018-09-28T01:33:10.286Z,101737.60
2018-09-28T01:33:22.036Z,101735.92
2018-09-28T01:33:33.782Z,101739.28
2018-09-28T01:33:45.539Z,101733.31
2018-09-28T01:33:57.485Z,101733.69
2018-09-28T01:34:09.222Z,101736.67
2018-09-28T01:34:20.984Z,101738.53
2018-09-28T01:34:32.742Z,101738.91
2018-09-28T01:34:44.505Z,101737.06
2018-09-28T01:34:56.255Z,101734.45
2018-09-28T01:35:07.997Z,101738.73
2018-09-28T01:35:19.739Z,101734.45
2018-09-28T01:35:31.501Z,101735.37
2018-09-28T01:35:43.249Z,101735.75
2018-09-28T01:35:55.039Z,101740.21
2018-09-28T01:36:06.792Z,101737.60
2018-09-28T01:36:18.545Z,101733.52
2018-09-28T01:36:30.293Z,101737.06
2018-09-28T01:36:42.050Z,101738.91
2018-09-28T01:36:53.807Z,101735.75
2018-09-28T01:37:05.559Z,101738.91
2018-09-28T01:37:17.314Z,101745.05
2018-09-28T01:37:29.082Z,101739.67
2018-09-28T01:37:40.838Z,101738.36
2018-09-28T01:37:52.627Z,101734.06
2018-09-28T01:38:04.427Z,101738.91
2018-09-28T01:38:16.200Z,101737.06
2018-09-28T01:38:27.971Z,101741.52
2018-09-28T01:38:39.728Z,101737.98
2018-09-28T01:38:51.475Z,101737.60
2018-09-28T01:39:03.229Z,101735.75
2018-09-28T01:39:14.992Z,101735.75
2018-09-28T01:39:26.750Z,101740.21
2018-09-28T01:39:38.506Z,101734.06
2018-09-28T01:39:50.251Z,101730.53
2018-09-28T01:40:02.000Z,101737.98
2018-09-28T01:40:13.779Z,101743.58
2018-09-28T01:40:25.539Z,101737.98
2018-09-28T01:40:37.311Z,101740.05
2018-09-28T01:40:49.062Z,101738.73
2018-09-28T01:41:00.814Z,101738.20
2018-09-28T01:41:12.572Z,101737.44
2018-09-28T01:41:24.314Z,101739.13
2018-09-28T01:41:36.091Z,101743.41
2018-09-28T01:41:47.858Z,101742.66
2018-09-28T01:41:59.617Z,101744.34
2018-09-28T01:42:11.390Z,101743.95
2018-09-28T01:42:23.147Z,101746.95
2018-09-28T01:42:34.906Z,101742.87
2018-09-28T01:42:46.655Z,101743.03
2018-09-28T01:42:58.414Z,101746.57
2018-09-28T01:43:10.188Z,101747.11
2018-09-28T01:43:21.941Z,101741.73
2018-09-28T01:43:34.202Z,101746.19
2018-09-28T01:43:45.947Z,101745.81
2018-09-28T01:43:57.699Z,101749.34
2018-09-28T01:44:09.459Z,101740.97
2018-09-28T01:44:21.247Z,101739.67
2018-09-28T01:44:33.010Z,101746.73
2018-09-28T01:44:44.754Z,101748.41
2018-09-28T01:44:56.535Z,101742.82
2018-09-28T01:45:08.300Z,101748.80
2018-09-28T01:45:20.043Z,101748.41
2018-09-28T01:45:31.793Z,101743.20
2018-09-28T01:45:43.551Z,101748.80
2018-09-28T01:45:55.286Z,101748.80
2018-09-28T01:46:07.055Z,101748.03
2018-09-28T01:46:18.815Z,101747.11
2018-09-28T01:46:30.571Z,101739.67
2018-09-28T01:46:42.310Z,101752.16
2018-09-28T01:46:54.067Z,101748.41
2018-09-28T01:47:05.826Z,101747.49
2018-09-28T01:47:17.588Z,101745.27
2018-09-28T01:47:29.345Z,101752.70
2018-09-28T01:47:41.091Z,101747.88
2018-09-28T01:47:52.825Z,101743.03
2018-09-28T01:48:04.615Z,101748.25
2018-09-28T01:48:16.402Z,101747.88
2018-09-28T01:48:28.165Z,101750.86
2018-09-28T01:48:39.919Z,101744.88
2018-09-28T01:48:51.678Z,101752.70
2018-09-28T01:49:03.426Z,101749.17
2018-09-28T01:49:15.185Z,101753.47
2018-09-28T01:49:26.938Z,101755.16
2018-09-28T01:49:38.673Z,101748.63
2018-09-28T01:49:50.449Z,101753.09
2018-09-28T01:50:02.214Z,101747.88
2018-09-28T01:50:13.980Z,101747.33
2018-09-28T01:50:25.733Z,101752.16
2018-09-28T01:50:37.482Z,101747.70
2018-09-28T01:50:49.235Z,101752.16
2018-09-28T01:51:00.978Z,101756.84
2018-09-28T01:51:12.732Z,101744.55
2018-09-28T01:51:24.491Z,101749.39
2018-09-28T01:51:36.255Z,101753.84
2018-09-28T01:51:48.024Z,101753.30
2018-09-28T01:51:59.789Z,101751.24
2018-09-28T01:52:11.654Z,101751.24
2018-09-28T01:52:23.415Z,101752.92
2018-09-28T01:52:35.162Z,101756.45
2018-09-28T01:52:46.909Z,101753.84
2018-09-28T01:52:58.747Z,101753.30
2018-09-28T01:53:10.491Z,101754.77
2018-09-28T01:53:22.237Z,101755.53
2018-09-28T01:53:33.994Z,101755.53
2018-09-28T01:53:45.752Z,101757.38
2018-09-28T01:53:57.512Z,101751.63
2018-09-28T01:54:09.263Z,101750.70
2018-09-28T01:54:21.004Z,101752.92
2018-09-28T01:54:32.759Z,101760.38
2018-09-28T01:54:44.519Z,101759.45
2018-09-28T01:54:56.282Z,101761.30
2018-09-28T01:55:08.052Z,101758.14
2018-09-28T01:55:19.803Z,101751.08
2018-09-28T01:55:31.538Z,101755.91
2018-09-28T01:55:43.288Z,101755.53
2018-09-28T01:55:55.064Z,101756.30
2018-09-28T01:56:06.810Z,101758.52
2018-09-28T01:56:18.605Z,101751.08
2018-09-28T01:56:30.370Z,101756.30
2018-09-28T01:56:42.134Z,101755.91
2018-09-28T01:56:54.006Z,101756.84
2018-09-28T01:57:05.767Z,101752.37
2018-09-28T01:57:17.518Z,101755.37
2018-09-28T01:57:29.411Z,101752.37
2018-09-28T01:57:41.159Z,101748.47
2018-09-28T01:57:52.915Z,101759.06
2018-09-28T01:58:04.683Z,101754.98
2018-09-28T01:58:16.489Z,101755.53
2018-09-28T01:58:28.251Z,101759.06
2018-09-28T01:58:39.998Z,101753.69
2018-09-28T01:58:51.763Z,101750.70
2018-09-28T01:59:03.524Z,101755.16
2018-09-28T01:59:15.268Z,101762.05
2018-09-28T01:59:27.028Z,101757.77
2018-09-28T01:59:38.782Z,101761.51
2018-09-28T01:59:50.532Z,101755.37
2018-09-28T02:00:02.278Z,101752.37
2018-09-28T02:00:14.044Z,101758.91
2018-09-28T02:00:25.796Z,101754.98
2018-09-28T02:00:37.595Z,101757.98
2018-09-28T02:00:49.334Z,101753.69
2018-09-28T02:01:01.091Z,101755.91
2018-09-28T02:01:12.840Z,101756.30
2018-09-28T02:01:24.845Z,101760.97
2018-09-28T02:01:36.589Z,101758.73
2018-09-28T02:01:48.337Z,101760.59
2018-09-28T02:02:00.099Z,101756.13
2018-09-28T02:02:11.855Z,101760.97
2018-09-28T02:02:23.599Z,101764.88
2018-09-28T02:02:35.383Z,101764.88
2018-09-28T02:02:47.132Z,101767.11
2018-09-28T02:02:58.883Z,101755.75
2018-09-28T02:03:10.647Z,101760.59
2018-09-28T02:03:22.436Z,101762.81
2018-09-28T02:03:34.194Z,101757.05
2018-09-28T02:03:45.944Z,101759.66
2018-09-28T02:03:57.699Z,101767.11
2018-09-28T02:04:09.454Z,101762.27
2018-09-28T02:04:21.205Z,101759.83
2018-09-28T02:04:32.964Z,101760.97
2018-09-28T02:04:44.717Z,101759.66
2018-09-28T02:04:56.475Z,101757.98
2018-09-28T02:05:08.239Z,101760.59
2018-09-28T02:05:20.004Z,101757.05
2018-09-28T02:05:31.763Z,101755.75
2018-09-28T02:05:43.541Z,101753.14
2018-09-28T02:05:55.295Z,101759.83
2018-09-28T02:06:07.034Z,101756.67
2018-09-28T02:06:18.793Z,101763.36
2018-09-28T02:06:30.566Z,101763.36
2018-09-28T02:06:42.305Z,101763.73
2018-09-28T02:06:54.064Z,101757.22
2018-09-28T02:07:05.811Z,101761.12
2018-09-28T02:07:17.565Z,101753.52
2018-09-28T02:07:29.310Z,101757.59
2018-09-28T02:07:41.056Z,101759.28
2018-09-28T02:07:53.264Z,101757.98
2018-09-28T02:08:05.035Z,101761.12
2018-09-28T02:08:16.777Z,101765.42
2018-09-28T02:08:28.543Z,101760.59
2018-09-28T02:08:40.297Z,101765.05
2018-09-28T02:08:52.066Z,101764.12
2018-09-28T02:09:04.695Z,101765.80
2018-09-28T02:09:16.460Z,101767.48
2018-09-28T02:09:28.230Z,101763.58
2018-09-28T02:09:39.988Z,101757.98
2018-09-28T02:09:51.751Z,101757.98
2018-09-28T02:10:03.495Z,101762.81
2018-09-28T02:10:15.243Z,101756.13
2018-09-28T02:10:26.999Z,101765.05
2018-09-28T02:10:38.756Z,101768.41
2018-09-28T02:10:50.559Z,101759.66
2018-09-28T02:11:02.314Z,101765.80
2018-09-28T02:11:14.074Z,101766.19
2018-09-28T02:11:26.219Z,101760.59
2018-09-28T02:11:37.970Z,101757.43
2018-09-28T02:11:49.730Z,101757.05
2018-09-28T02:12:01.521Z,101761.34
2018-09-28T02:12:13.267Z,101759.66
2018-09-28T02:12:25.012Z,101759.66
2018-09-28T02:12:36.931Z,101756.13
2018-09-28T02:12:48.952Z,101761.34
2018-09-28T02:13:00.701Z,101760.42
2018-09-28T02:13:12.452Z,101759.11
2018-09-28T02:13:24.197Z,101761.72
2018-09-28T02:13:35.981Z,101758.73
2018-09-28T02:13:47.724Z,101762.27
2018-09-28T02:13:59.508Z,101758.36
2018-09-28T02:14:11.256Z,101757.43
2018-09-28T02:14:23.028Z,101755.20